Time;durP1;ratioP1;P1;durP2;ratioP2;P2;SDS_P1;SDS_P2;PMS_P1;PMS_P2;Temp;Humidity;BMP_temperature;BMP_pressure;BME280_temperature;BME280_humidity;BME280_pressure;Samples;Min_cycle;Max_cycle;Signal;HPM_P1;HPM_P2
2023/03/14 00:02:16;;;;;;;2.13;0.70;;;10.60;57.90;;;;;;5013530;28;46543;-80
2023/03/14 00:04:42;;;;;;;2.73;0.90;;;10.60;57.80;;;;;;5015054;28;46198;-81
2023/03/14 00:07:11;;;;;;;2.57;0.80;;;10.60;57.70;;;;;;5014492;28;46479;-81
2023/03/14 00:09:36;;;;;;;1.40;0.60;;;10.50;58.20;;;;;;5020325;28;46846;-81
2023/03/14 00:12:03;;;;;;;1.20;0.60;;;10.40;58.30;;;;;;5018079;28;47039;-81
2023/03/14 00:14:29;;;;;;;1.20;0.60;;;10.30;58.90;;;;;;5045306;28;46865;-80
2023/03/14 00:16:54;;;;;;;1.40;0.60;;;10.20;59.20;;;;;;5011899;28;46403;-81
2023/03/14 00:19:20;;;;;;;1.10;0.57;;;10.20;59.20;;;;;;5016867;28;46257;-81
2023/03/14 00:21:46;;;;;;;1.60;0.70;;;10.10;59.20;;;;;;5017317;28;46328;-81
2023/03/14 00:24:11;;;;;;;1.20;0.60;;;10.20;58.80;;;;;;5017037;28;46300;-82
2023/03/14 00:26:37;;;;;;;1.80;0.70;;;10.30;58.50;;;;;;5013807;28;47214;-81
2023/03/14 00:29:02;;;;;;;1.40;0.67;;;10.30;57.90;;;;;;5015793;28;46361;-81
2023/03/14 00:31:28;;;;;;;2.83;0.70;;;10.40;57.30;;;;;;5013968;28;46201;-81
2023/03/14 00:33:54;;;;;;;2.50;0.60;;;10.50;56.80;;;;;;5014090;28;46341;-81
2023/03/14 00:36:20;;;;;;;1.20;0.60;;;10.50;56.50;;;;;;5016443;28;46674;-81
2023/03/14 00:38:49;;;;;;;1.60;0.70;;;10.60;56.30;;;;;;5022294;28;46773;-83
2023/03/14 00:41:22;;;;;;;2.07;0.80;;;10.60;56.20;;;;;;5011141;28;46420;-81
2023/03/14 00:43:47;;;;;;;1.27;0.60;;;10.70;56.20;;;;;;5015261;28;46537;-81
2023/03/14 00:46:13;;;;;;;1.50;0.80;;;10.60;58.70;;;;;;5012431;28;46549;-81
2023/03/14 00:48:39;;;;;;;1.30;0.70;;;10.50;59.80;;;;;;5015386;28;46451;-81
2023/03/14 00:51:07;;;;;;;3.07;0.80;;;10.60;59.90;;;;;;5015545;28;46423;-80
2023/03/14 00:53:36;;;;;;;2.40;0.93;;;10.60;59.60;;;;;;5016024;28;45926;-80
2023/03/14 00:56:07;;;;;;;1.60;0.73;;;10.70;59.50;;;;;;5013737;28;46774;-82
2023/03/14 00:58:32;;;;;;;2.00;0.90;;;10.70;60.00;;;;;;5025298;28;45771;-81
2023/03/14 01:00:58;;;;;;;1.50;0.70;;;10.80;58.70;;;;;;5024024;28;46342;-80
2023/03/14 01:03:24;;;;;;;1.33;0.70;;;10.80;58.70;;;;;;5031539;28;46353;-81
2023/03/14 01:05:50;;;;;;;2.63;0.83;;;10.70;59.50;;;;;;5023268;28;46375;-81
2023/03/14 01:08:16;;;;;;;2.60;1.60;;;10.70;59.30;;;;;;5028087;28;48178;-81
2023/03/14 01:10:42;;;;;;;1.60;0.67;;;10.70;59.10;;;;;;5028648;28;46412;-79
2023/03/14 01:13:09;;;;;;;2.17;0.83;;;10.70;59.50;;;;;;5030824;28;46601;-82
2023/03/14 01:15:36;;;;;;;6.10;0.70;;;10.50;60.50;;;;;;5022033;28;48460;-80
2023/03/14 01:18:02;;;;;;;1.43;0.70;;;10.40;61.10;;;;;;5023478;28;45743;-80
2023/03/14 01:20:27;;;;;;;2.93;0.73;;;10.50;60.70;;;;;;5024856;28;46373;-80
2023/03/14 01:22:53;;;;;;;3.67;1.57;;;10.50;60.60;;;;;;5021453;28;46413;-80
2023/03/14 01:25:19;;;;;;;3.43;0.87;;;10.40;60.60;;;;;;5021708;28;47567;-78
2023/03/14 01:27:44;;;;;;;2.33;0.80;;;10.40;60.60;;;;;;5023278;28;46433;-80
2023/03/14 01:30:12;;;;;;;3.87;0.80;;;10.40;60.50;;;;;;5019302;28;46447;-80
2023/03/14 01:32:38;;;;;;;2.83;0.80;;;10.30;60.90;;;;;;5020226;28;46621;-80
2023/03/14 01:35:04;;;;;;;1.97;0.60;;;10.20;60.90;;;;;;5024679;28;48033;-79
2023/03/14 01:37:30;;;;;;;3.10;0.70;;;10.30;60.70;;;;;;5021107;28;46241;-81
2023/03/14 01:39:56;;;;;;;3.23;0.90;;;10.20;60.50;;;;;;5022694;28;46490;-81
2023/03/14 01:42:21;;;;;;;7.13;0.80;;;10.20;60.50;;;;;;5023492;28;46420;-78
2023/03/14 01:44:47;;;;;;;2.57;0.80;;;10.20;60.70;;;;;;5021425;28;46401;-80
2023/03/14 01:47:12;;;;;;;2.13;0.77;;;10.20;60.70;;;;;;5017012;28;46326;-80
2023/03/14 01:49:38;;;;;;;1.43;0.70;;;10.10;60.50;;;;;;5016348;28;46478;-79
2023/03/14 01:52:09;;;;;;;2.47;0.90;;;10.10;60.60;;;;;;5044322;28;47136;-78
2023/03/14 01:55:06;;;;;;;2.50;0.70;;;10.00;60.80;;;;;;5018488;28;47007;-79
2023/03/14 01:57:36;;;;;;;1.80;0.73;;;9.90;62.20;;;;;;5021805;28;46474;-79
2023/03/14 02:00:23;;;;;;;1.13;0.60;;;9.90;61.90;;;;;;5015444;28;46351;-80
2023/03/14 02:02:54;;;;;;;1.60;0.60;;;9.90;62.00;;;;;;5018986;28;45911;-79
2023/03/14 02:05:24;;;;;;;1.27;0.60;;;9.90;61.90;;;;;;5014458;28;46978;-79
2023/03/14 02:07:52;;;;;;;1.30;0.70;;;9.80;61.70;;;;;;5024927;28;46426;-81
2023/03/14 02:10:21;;;;;;;1.63;0.63;;;9.90;61.80;;;;;;5019295;28;46384;-81
2023/03/14 02:12:48;;;;;;;1.93;0.77;;;9.80;62.00;;;;;;5055442;28;45995;-80
2023/03/14 02:15:14;;;;;;;2.80;0.73;;;9.80;62.90;;;;;;5033267;28;46026;-78
2023/03/14 02:17:43;;;;;;;3.83;0.70;;;9.70;63.80;;;;;;5023739;28;45791;-80
2023/03/14 02:20:35;;;;;;;1.60;0.67;;;9.70;64.50;;;;;;5016306;28;46389;-77
2023/03/14 02:23:01;;;;;;;1.80;0.73;;;9.60;65.00;;;;;;5048272;28;46454;-79
2023/03/14 02:25:44;;;;;;;1.50;0.70;;;9.60;66.20;;;;;;5013616;28;46355;-79
2023/03/14 02:28:10;;;;;;;2.97;0.80;;;9.60;67.30;;;;;;5014473;28;46410;-80
2023/03/14 02:30:36;;;;;;;2.43;0.90;;;9.60;67.70;;;;;;5019599;28;46675;-80
2023/03/14 02:33:06;;;;;;;1.50;0.90;;;9.50;67.60;;;;;;5021704;28;46711;-80
2023/03/14 02:35:37;;;;;;;1.73;0.67;;;9.50;67.60;;;;;;5017130;28;46685;-80
2023/03/14 02:38:18;;;;;;;1.20;0.60;;;9.50;67.40;;;;;;5013992;28;46376;-80
2023/03/14 02:40:44;;;;;;;1.50;0.80;;;9.70;67.30;;;;;;5044993;28;46667;-80
2023/03/14 02:43:10;;;;;;;2.70;0.70;;;9.60;67.10;;;;;;5010770;28;46432;-78
2023/03/14 02:45:39;;;;;;;1.40;0.60;;;9.60;67.00;;;;;;5016674;28;46492;-80
2023/03/14 02:48:10;;;;;;;1.40;0.60;;;9.50;66.70;;;;;;5015394;28;47032;-80
2023/03/14 02:50:36;;;;;;;1.20;0.60;;;9.50;66.50;;;;;;5013921;28;46693;-80
2023/03/14 02:53:02;;;;;;;1.40;0.60;;;9.50;66.40;;;;;;5010021;28;46410;-80
2023/03/14 02:55:27;;;;;;;1.20;0.60;;;9.50;66.20;;;;;;5012604;28;46422;-82
2023/03/14 02:57:53;;;;;;;7.37;0.70;;;9.50;66.00;;;;;;5012909;28;46283;-80
2023/03/14 03:00:19;;;;;;;11.40;0.80;;;9.50;65.70;;;;;;5013637;28;46341;-79
2023/03/14 03:02:45;;;;;;;1.40;0.70;;;9.60;65.50;;;;;;5011556;28;46389;-81
2023/03/14 03:05:10;;;;;;;1.10;0.60;;;9.60;65.10;;;;;;5012656;28;46501;-82
2023/03/14 03:07:36;;;;;;;1.30;0.70;;;9.60;65.10;;;;;;5050265;28;46702;-83
2023/03/14 03:10:02;;;;;;;2.40;0.60;;;9.50;65.00;;;;;;5015700;28;46289;-81
2023/03/14 03:12:28;;;;;;;1.10;0.60;;;9.50;65.00;;;;;;5014854;28;46476;-83
2023/03/14 03:14:53;;;;;;;1.30;0.60;;;9.50;65.00;;;;;;5014921;28;46511;-82
2023/03/14 03:17:24;;;;;;;3.43;0.60;;;9.50;65.00;;;;;;5008471;28;46509;-82
2023/03/14 03:19:50;;;;;;;1.20;0.67;;;9.50;65.00;;;;;;5013581;28;46895;-81
2023/03/14 03:22:15;;;;;;;1.40;0.67;;;9.50;65.00;;;;;;5011668;28;46608;-79
2023/03/14 03:24:41;;;;;;;2.70;0.70;;;9.40;64.90;;;;;;5027417;28;48806;-82
2023/03/14 03:27:07;;;;;;;1.10;0.50;;;9.40;64.90;;;;;;5020280;28;45843;-83
2023/03/14 03:29:32;;;;;;;1.40;0.60;;;9.40;64.90;;;;;;5053592;28;46298;-83
2023/03/14 03:31:58;;;;;;;1.10;0.60;;;9.30;64.80;;;;;;5013990;28;46392;-80
2023/03/14 03:34:23;;;;;;;1.00;0.50;;;9.30;64.80;;;;;;5026094;28;48396;-80
2023/03/14 03:36:49;;;;;;;1.10;0.60;;;9.30;64.80;;;;;;5015659;28;46327;-80
2023/03/14 03:39:14;;;;;;;1.10;0.60;;;9.20;64.70;;;;;;5016282;28;46351;-80
2023/03/14 03:41:40;;;;;;;1.57;0.60;;;9.20;64.70;;;;;;5014298;28;46545;-79
2023/03/14 03:44:05;;;;;;;1.10;0.60;;;9.10;64.60;;;;;;5016579;28;46555;-80
2023/03/14 03:46:31;;;;;;;1.00;0.50;;;9.10;64.60;;;;;;5014183;28;45863;-81
2023/03/14 03:48:59;;;;;;;1.40;0.60;;;9.00;64.60;;;;;;5017305;28;46454;-83
2023/03/14 03:51:25;;;;;;;1.00;0.50;;;9.00;64.60;;;;;;5014431;28;46586;-82
2023/03/14 03:53:50;;;;;;;1.10;0.60;;;9.00;64.60;;;;;;5013738;28;47637;-79
2023/03/14 03:56:16;;;;;;;1.10;0.60;;;8.90;64.50;;;;;;5013987;28;46678;-81
2023/03/14 03:58:42;;;;;;;1.30;0.60;;;8.90;65.70;;;;;;5015982;28;46505;-81
2023/03/14 04:01:08;;;;;;;1.00;0.50;;;8.90;64.50;;;;;;5009253;28;46600;-82
2023/03/14 04:03:34;;;;;;;1.30;0.60;;;8.80;64.40;;;;;;5014844;28;49212;-82
2023/03/14 04:06:02;;;;;;;1.07;0.60;;;8.80;64.40;;;;;;5011239;28;47006;-81
2023/03/14 04:08:29;;;;;;;1.23;0.60;;;8.80;64.40;;;;;;5014469;28;46348;-81
2023/03/14 04:10:57;;;;;;;1.10;0.60;;;8.80;64.40;;;;;;5019101;28;46291;-82
2023/03/14 04:13:23;;;;;;;5.10;0.70;;;8.80;64.40;;;;;;5013558;28;48345;-79
2023/03/14 04:15:48;;;;;;;1.00;0.60;;;8.80;64.30;;;;;;5014376;28;46442;-82
2023/03/14 04:18:14;;;;;;;1.10;0.57;;;8.80;64.00;;;;;;5016823;28;46441;-81
2023/03/14 04:20:39;;;;;;;1.40;0.60;;;8.80;63.80;;;;;;5012438;28;46483;-81
2023/03/14 04:23:05;;;;;;;1.10;0.60;;;8.80;63.70;;;;;;5013958;28;47609;-82
2023/03/14 04:25:30;;;;;;;1.20;0.60;;;8.80;63.40;;;;;;5013475;28;46651;-81
2023/03/14 04:27:56;;;;;;;1.60;0.67;;;8.80;63.30;;;;;;5010781;28;46514;-81
2023/03/14 04:30:21;;;;;;;1.20;0.70;;;8.80;63.20;;;;;;5013347;28;46573;-79
2023/03/14 04:32:47;;;;;;;1.13;0.60;;;8.90;63.10;;;;;;5015008;28;46608;-81
2023/03/14 04:35:13;;;;;;;2.40;0.60;;;8.80;62.90;;;;;;5017006;28;46405;-80
2023/03/14 04:37:38;;;;;;;1.10;0.50;;;8.80;62.80;;;;;;5013817;28;45897;-82
2023/03/14 04:40:06;;;;;;;2.90;0.60;;;8.90;62.90;;;;;;5015636;28;46442;-81
2023/03/14 04:42:32;;;;;;;1.73;0.60;;;8.90;62.90;;;;;;5014399;28;46761;-80
2023/03/14 04:44:57;;;;;;;1.13;0.60;;;8.90;62.80;;;;;;5010667;28;46394;-81
2023/03/14 04:47:23;;;;;;;2.50;0.60;;;8.80;62.60;;;;;;5012821;28;46490;-80
2023/03/14 04:49:48;;;;;;;1.00;0.60;;;8.90;62.50;;;;;;5012866;28;46495;-83
2023/03/14 04:52:14;;;;;;;1.40;0.60;;;8.90;62.40;;;;;;5012349;28;46568;-82
2023/03/14 04:54:39;;;;;;;1.20;0.60;;;8.90;62.40;;;;;;5015110;28;46821;-82
2023/03/14 04:57:05;;;;;;;1.23;0.70;;;8.90;62.30;;;;;;5012797;28;46436;-82
2023/03/14 04:59:31;;;;;;;1.20;0.60;;;8.90;62.10;;;;;;5020845;28;46535;-82
2023/03/14 05:01:56;;;;;;;1.50;0.60;;;8.80;61.70;;;;;;5018508;28;48163;-80
2023/03/14 05:04:22;;;;;;;1.20;0.53;;;8.80;61.70;;;;;;5010263;28;46523;-79
2023/03/14 05:06:47;;;;;;;1.00;0.50;;;8.80;61.70;;;;;;5012790;28;46416;-83
2023/03/14 05:09:13;;;;;;;1.00;0.50;;;8.80;61.60;;;;;;5006230;28;46380;-76
2023/03/14 05:11:38;;;;;;;1.07;0.57;;;8.80;61.60;;;;;;5008957;28;47710;-83
2023/03/14 05:14:04;;;;;;;1.00;0.50;;;8.80;61.40;;;;;;5012445;28;46466;-83
2023/03/14 05:16:29;;;;;;;1.20;0.60;;;8.80;61.30;;;;;;5017769;28;46336;-83
2023/03/14 05:18:55;;;;;;;1.30;0.60;;;8.80;61.20;;;;;;5024691;28;46291;-82
2023/03/14 05:21:20;;;;;;;1.10;0.60;;;8.80;61.10;;;;;;5013276;28;46753;-83
2023/03/14 05:23:46;;;;;;;1.70;0.70;;;8.80;61.10;;;;;;5013083;28;46737;-82
2023/03/14 05:26:12;;;;;;;7.40;0.60;;;8.80;60.90;;;;;;5010515;28;46722;-80
2023/03/14 05:28:37;;;;;;;1.10;0.60;;;8.80;60.90;;;;;;5013241;28;46710;-81
2023/03/14 05:31:06;;;;;;;1.20;0.70;;;8.80;60.80;;;;;;5010026;28;48274;-82
2023/03/14 05:33:32;;;;;;;2.53;0.70;;;8.80;60.80;;;;;;5011350;28;47008;-83
2023/03/14 05:35:57;;;;;;;1.97;0.60;;;8.80;60.60;;;;;;5012907;28;46465;-80
2023/03/14 05:38:23;;;;;;;1.00;0.50;;;8.80;60.50;;;;;;5012061;28;47368;-76
2023/03/14 05:40:48;;;;;;;1.27;0.60;;;8.80;61.60;;;;;;5023273;28;45978;-80
2023/03/14 05:43:15;;;;;;;1.10;0.53;;;8.80;60.40;;;;;;5048839;28;46780;-80
2023/03/14 05:45:42;;;;;;;2.63;0.60;;;8.80;60.20;;;;;;5016363;28;46482;-81
2023/03/14 05:48:07;;;;;;;1.00;0.50;;;8.80;60.10;;;;;;5030187;28;45927;-81
2023/03/14 05:50:33;;;;;;;1.13;0.60;;;8.80;60.00;;;;;;5024273;28;47069;-81
2023/03/14 05:52:58;;;;;;;1.30;0.60;;;8.80;60.00;;;;;;5024991;28;46491;-82
2023/03/14 05:55:24;;;;;;;10.40;5.47;;;8.80;59.90;;;;;;5022113;28;46311;-81
2023/03/14 05:57:50;;;;;;;9.90;4.10;;;8.80;59.60;;;;;;5020895;28;46552;-81
2023/03/14 06:00:16;;;;;;;1.40;0.70;;;8.80;59.50;;;;;;5028015;28;48090;-82
2023/03/14 06:02:41;;;;;;;1.20;0.60;;;8.80;59.30;;;;;;5016149;28;46446;-82
2023/03/14 06:05:07;;;;;;;1.10;0.53;;;8.80;59.20;;;;;;5020127;28;45676;-81
2023/03/14 06:07:33;;;;;;;1.10;0.60;;;8.90;59.20;;;;;;5047407;28;45852;-81
2023/03/14 06:09:58;;;;;;;1.30;0.60;;;8.90;59.10;;;;;;5023845;28;46254;-82
2023/03/14 06:12:24;;;;;;;5.90;1.83;;;8.90;58.90;;;;;;5024491;28;45780;-80
2023/03/14 06:14:50;;;;;;;1.97;1.20;;;8.90;60.00;;;;;;5024408;28;45806;-80
2023/03/14 06:17:15;;;;;;;2.23;0.80;;;8.90;59.00;;;;;;5026309;28;46577;-81
2023/03/14 06:19:41;;;;;;;1.53;0.70;;;9.00;58.80;;;;;;5024713;28;46386;-82
2023/03/14 06:22:07;;;;;;;2.10;1.33;;;9.00;58.70;;;;;;5021747;28;46366;-83
2023/03/14 06:24:32;;;;;;;4.13;2.50;;;9.00;58.70;;;;;;5030152;28;46302;-83
2023/03/14 06:26:58;;;;;;;1.40;0.90;;;9.00;58.80;;;;;;5044347;28;46544;-82
2023/03/14 06:29:23;;;;;;;2.20;1.23;;;9.00;58.60;;;;;;5025182;28;46161;-79
2023/03/14 06:31:49;;;;;;;1.60;0.90;;;9.10;58.30;;;;;;5024223;28;46678;-81
2023/03/14 06:34:15;;;;;;;3.30;1.00;;;9.20;58.00;;;;;;5023586;28;46367;-82
2023/03/14 06:36:40;;;;;;;3.13;1.70;;;9.30;57.70;;;;;;5020399;28;46358;-82
2023/03/14 06:39:06;;;;;;;2.60;1.30;;;9.40;57.30;;;;;;5022109;28;46476;-82
2023/03/14 06:41:32;;;;;;;2.67;0.87;;;9.40;57.00;;;;;;5022876;28;46507;-78
2023/03/14 06:43:58;;;;;;;2.17;1.33;;;9.50;56.90;;;;;;5014330;28;45863;-82
2023/03/14 06:46:23;;;;;;;2.37;1.20;;;9.50;56.80;;;;;;5016591;28;46650;-79
2023/03/14 06:48:49;;;;;;;2.30;1.50;;;9.50;56.80;;;;;;5022396;28;47623;-80
2023/03/14 06:51:15;;;;;;;1.60;0.83;;;9.50;56.70;;;;;;5020110;28;46409;-82
2023/03/14 06:53:40;;;;;;;1.40;0.80;;;9.50;56.80;;;;;;5022804;28;46503;-82
2023/03/14 06:56:07;;;;;;;1.70;0.90;;;9.50;57.00;;;;;;5022506;28;46514;-82
2023/03/14 06:58:32;;;;;;;2.90;1.43;;;9.50;56.90;;;;;;5029670;28;46730;-83
2023/03/14 07:00:58;;;;;;;1.80;0.97;;;9.50;56.80;;;;;;5028951;28;46395;-82
2023/03/14 07:03:24;;;;;;;2.10;1.00;;;9.50;56.80;;;;;;5028176;28;46348;-79
2023/03/14 07:05:50;;;;;;;1.40;0.60;;;9.50;56.70;;;;;;5035083;28;46431;-84
2023/03/14 07:08:16;;;;;;;2.13;0.73;;;9.50;56.60;;;;;;5035964;28;46272;-81
2023/03/14 07:10:41;;;;;;;1.00;0.60;;;9.50;56.50;;;;;;5013114;28;46374;-82
2023/03/14 07:13:07;;;;;;;1.10;0.50;;;9.60;56.40;;;;;;5055685;28;46471;-81
2023/03/14 07:15:33;;;;;;;1.27;0.60;;;9.60;56.20;;;;;;5024373;28;46312;-82
2023/03/14 07:17:58;;;;;;;1.10;0.60;;;9.60;56.00;;;;;;5023301;28;47364;-82
2023/03/14 07:20:24;;;;;;;1.10;0.60;;;9.60;56.00;;;;;;5023825;28;46347;-81
2023/03/14 07:22:50;;;;;;;1.30;0.60;;;9.60;55.70;;;;;;5024104;28;46225;-82
2023/03/14 07:25:16;;;;;;;1.80;0.70;;;9.70;55.60;;;;;;5023670;28;46332;-82
2023/03/14 07:27:47;;;;;;;1.33;0.60;;;9.70;55.50;;;;;;5026441;28;47244;-81
2023/03/14 07:30:13;;;;;;;6.97;0.70;;;9.70;55.30;;;;;;5021538;28;46247;-82
2023/03/14 07:32:39;;;;;;;1.37;0.60;;;9.80;55.10;;;;;;5026715;28;46835;-82
2023/03/14 07:35:06;;;;;;;1.20;0.60;;;9.80;54.80;;;;;;5025506;28;46231;-82
2023/03/14 07:37:31;;;;;;;2.37;0.70;;;9.80;54.70;;;;;;5015832;28;49275;-82
2023/03/14 07:39:57;;;;;;;3.67;0.60;;;9.90;54.40;;;;;;5026924;28;46478;-81
2023/03/14 07:42:22;;;;;;;1.10;0.60;;;10.00;53.20;;;;;;5026353;28;46426;-79
2023/03/14 07:44:48;;;;;;;1.30;0.70;;;10.10;52.70;;;;;;5024969;28;46343;-81
2023/03/14 07:47:13;;;;;;;1.20;0.60;;;10.20;51.90;;;;;;5021354;28;46470;-80
2023/03/14 07:49:39;;;;;;;1.00;0.60;;;10.30;51.90;;;;;;5023463;28;46392;-81
2023/03/14 07:52:04;;;;;;;1.20;0.60;;;10.40;52.00;;;;;;5024597;28;46490;-81
2023/03/14 07:54:30;;;;;;;1.13;0.60;;;10.40;52.00;;;;;;5025458;28;46307;-81
2023/03/14 07:56:55;;;;;;;1.30;0.60;;;10.40;52.00;;;;;;5028254;28;48222;-82
2023/03/14 07:59:21;;;;;;;1.10;0.60;;;10.50;52.10;;;;;;5022107;28;46315;-82
2023/03/14 08:01:46;;;;;;;4.00;0.90;;;10.60;51.60;;;;;;5023646;28;46297;-82
2023/03/14 08:04:12;;;;;;;3.10;0.67;;;10.60;51.10;;;;;;5022193;28;46836;-82
2023/03/14 08:06:38;;;;;;;1.30;0.70;;;10.80;50.80;;;;;;5023944;28;47536;-81
2023/03/14 08:09:04;;;;;;;1.40;0.67;;;10.80;50.60;;;;;;5026178;28;46260;-81
2023/03/14 08:11:30;;;;;;;1.70;0.83;;;10.80;50.50;;;;;;5025082;28;46237;-80
2023/03/14 08:13:55;;;;;;;2.33;0.80;;;10.80;50.30;;;;;;5043785;28;46513;-80
2023/03/14 08:16:21;;;;;;;1.67;0.80;;;10.80;50.20;;;;;;5019807;28;46316;-81
2023/03/14 08:18:46;;;;;;;2.27;0.70;;;10.90;50.00;;;;;;5056291;28;46384;-81
2023/03/14 08:21:13;;;;;;;1.40;0.70;;;11.00;49.80;;;;;;5012870;28;45690;-81
2023/03/14 08:23:38;;;;;;;1.20;0.60;;;11.00;49.50;;;;;;5049943;28;46468;-81
2023/03/14 08:26:04;;;;;;;1.80;0.80;;;11.10;49.20;;;;;;5024012;28;46307;-81
2023/03/14 08:28:32;;;;;;;1.20;0.60;;;11.10;48.80;;;;;;5028536;28;45890;-81
2023/03/14 08:30:58;;;;;;;2.80;0.70;;;11.20;48.50;;;;;;5022305;28;46277;-81
2023/03/14 08:33:25;;;;;;;1.20;0.60;;;11.30;48.30;;;;;;5027642;28;46276;-81
2023/03/14 08:35:55;;;;;;;1.40;0.70;;;11.30;47.80;;;;;;5022908;28;46459;-81
2023/03/14 08:38:21;;;;;;;2.00;0.70;;;11.50;47.30;;;;;;5029236;28;46417;-82
2023/03/14 08:40:47;;;;;;;1.90;0.60;;;11.60;46.80;;;;;;5022798;28;46257;-81
2023/03/14 08:43:12;;;;;;;2.20;0.77;;;11.80;46.20;;;;;;5024567;28;46320;-81
2023/03/14 08:45:38;;;;;;;1.40;0.70;;;11.90;45.70;;;;;;5054590;28;47210;-83
2023/03/14 08:48:04;;;;;;;1.40;0.60;;;12.10;45.30;;;;;;5025286;28;46164;-82
2023/03/14 08:50:30;;;;;;;1.63;0.70;;;12.20;44.90;;;;;;5024468;28;46388;-82
2023/03/14 08:52:59;;;;;;;1.60;0.70;;;12.40;44.70;;;;;;5026242;28;45931;-82
2023/03/14 08:55:27;;;;;;;1.83;0.90;;;12.50;44.40;;;;;;5027429;28;46557;-82
2023/03/14 08:57:52;;;;;;;4.07;0.70;;;12.60;43.80;;;;;;5030169;28;47270;-81
2023/03/14 09:00:19;;;;;;;2.23;0.70;;;12.60;43.50;;;;;;5023586;28;46289;-81
2023/03/14 09:02:44;;;;;;;1.93;0.70;;;12.60;43.10;;;;;;5021257;28;46409;-81
2023/03/14 09:05:10;;;;;;;5.97;0.80;;;12.70;42.90;;;;;;5021633;28;46257;-82
2023/03/14 09:07:36;;;;;;;1.60;0.70;;;12.80;42.60;;;;;;5024236;28;46476;-82
2023/03/14 09:10:02;;;;;;;1.67;0.70;;;12.90;42.30;;;;;;5022638;28;46427;-81
2023/03/14 09:12:28;;;;;;;1.47;0.67;;;12.90;41.10;;;;;;5015247;28;46312;-80
2023/03/14 09:14:53;;;;;;;4.00;0.70;;;13.00;41.10;;;;;;5023419;28;46698;-81
2023/03/14 09:17:19;;;;;;;1.80;0.80;;;13.20;41.40;;;;;;5055070;28;45848;-82
2023/03/14 09:19:45;;;;;;;2.20;0.70;;;13.20;41.30;;;;;;5016758;28;46396;-81
2023/03/14 09:22:10;;;;;;;1.87;0.80;;;13.30;40.90;;;;;;5023784;28;46498;-81
2023/03/14 09:24:36;;;;;;;1.90;0.80;;;13.40;40.40;;;;;;5017887;28;46343;-81
2023/03/14 09:27:01;;;;;;;4.37;0.80;;;13.40;40.40;;;;;;5017702;28;46261;-81
2023/03/14 09:29:27;;;;;;;2.00;0.70;;;13.40;40.30;;;;;;5026736;28;46275;-80
2023/03/14 09:31:53;;;;;;;2.57;0.90;;;13.50;39.80;;;;;;5023445;28;46267;-82
2023/03/14 09:34:19;;;;;;;3.20;0.97;;;13.60;39.60;;;;;;5030901;28;46284;-82
2023/03/14 09:36:44;;;;;;;1.90;0.70;;;13.70;39.40;;;;;;5023500;28;46256;-82
2023/03/14 09:39:11;;;;;;;2.07;0.60;;;13.80;39.00;;;;;;5022562;28;46201;-82
2023/03/14 09:41:42;;;;;;;1.70;0.70;;;13.90;38.90;;;;;;5025033;28;46518;-83
2023/03/14 09:44:16;;;;;;;3.20;0.70;;;13.90;37.00;;;;;;5037843;28;46191;-81
2023/03/14 09:46:44;;;;;;;1.50;0.70;;;13.70;37.90;;;;;;5026535;28;46308;-81
2023/03/14 09:49:27;;;;;;;1.70;0.80;;;13.70;37.80;;;;;;5023948;28;46097;-82
2023/03/14 09:51:56;;;;;;;1.83;0.90;;;13.90;37.50;;;;;;5019076;28;46570;-81
2023/03/14 09:54:46;;;;;;;4.63;0.80;;;14.00;37.20;;;;;;5047164;28;47826;-81
2023/03/14 09:57:16;;;;;;;1.67;0.70;;;13.90;35.90;;;;;;5017354;28;46257;-81
2023/03/14 09:59:47;;;;;;;1.60;0.77;;;14.10;36.20;;;;;;5019278;28;46462;-81
2023/03/14 10:02:18;;;;;;;4.40;0.80;;;14.20;35.90;;;;;;5024520;28;46348;-81
2023/03/14 10:04:49;;;;;;;1.40;0.60;;;14.20;35.10;;;;;;5055338;28;48516;-81
2023/03/14 10:07:19;;;;;;;1.50;0.60;;;14.20;34.80;;;;;;5026317;28;46237;-80
2023/03/14 10:09:47;;;;;;;2.13;0.80;;;13.90;32.80;;;;;;5019124;28;46446;-81
2023/03/14 10:12:12;;;;;;;2.50;0.70;;;13.90;32.80;;;;;;5030308;28;46296;-80
2023/03/14 10:14:51;;;;;;;2.03;0.70;;;14.10;33.20;;;;;;5030038;28;47065;-80
2023/03/14 10:17:18;;;;;;;3.30;1.43;;;14.50;33.00;;;;;;5021292;28;46442;-81
2023/03/14 10:19:56;;;;;;;2.00;0.70;;;14.40;30.80;;;;;;5023303;28;46485;-81
2023/03/14 10:22:24;;;;;;;2.30;0.80;;;14.30;31.90;;;;;;5024981;28;46358;-81
2023/03/14 10:24:54;;;;;;;1.83;0.67;;;14.60;32.00;;;;;;5026440;28;47413;-81
2023/03/14 10:27:34;;;;;;;2.00;0.73;;;14.80;31.70;;;;;;5020375;28;46532;-81
2023/03/14 10:30:06;;;;;;;2.80;0.80;;;14.90;30.70;;;;;;5037695;28;46249;-80
2023/03/14 10:32:46;;;;;;;2.30;0.70;;;14.90;31.40;;;;;;5028647;28;46200;-81
2023/03/14 10:35:14;;;;;;;1.67;0.67;;;15.20;31.10;;;;;;5033407;28;49314;-81
2023/03/14 10:37:52;;;;;;;1.63;0.80;;;15.00;30.20;;;;;;5022608;28;46296;-82
2023/03/14 10:40:19;;;;;;;1.83;0.70;;;15.00;30.50;;;;;;5061311;28;46344;-81
2023/03/14 10:42:47;;;;;;;1.60;0.70;;;15.10;30.20;;;;;;5025618;28;46233;-81
2023/03/14 10:45:32;;;;;;;2.27;0.80;;;15.00;30.30;;;;;;5040968;28;48952;-84
2023/03/14 10:48:07;;;;;;;2.10;0.80;;;15.20;29.80;;;;;;5023862;28;45878;-80
2023/03/14 10:50:32;;;;;;;1.60;0.70;;;15.00;29.60;;;;;;5018245;28;46407;-80
2023/03/14 10:53:05;;;;;;;1.67;0.67;;;15.10;29.70;;;;;;5024690;28;46600;-82
2023/03/14 10:55:44;;;;;;;4.37;0.70;;;14.70;28.90;;;;;;5018604;28;46409;-82
2023/03/14 10:58:28;;;;;;;2.10;0.70;;;14.90;29.10;;;;;;5037259;28;46220;-81
2023/03/14 11:01:03;;;;;;;1.50;0.60;;;15.10;28.90;;;;;;5033139;28;45726;-81
2023/03/14 11:03:33;;;;;;;1.50;0.60;;;15.20;29.40;;;;;;5027192;28;46384;-79
2023/03/14 11:06:14;;;;;;;1.57;0.60;;;15.30;28.50;;;;;;5023117;28;49420;-80
2023/03/14 11:08:56;;;;;;;1.80;0.77;;;15.50;28.30;;;;;;5027780;28;46436;-80
2023/03/14 11:11:29;;;;;;;1.80;0.80;;;15.30;27.80;;;;;;5060168;28;46390;-81
2023/03/14 11:14:06;;;;;;;2.10;0.70;;;15.40;28.00;;;;;;5023114;28;46356;-79
2023/03/14 11:16:56;;;;;;;1.80;0.70;;;15.20;28.10;;;;;;5025357;28;46592;-80
2023/03/14 11:19:43;;;;;;;1.53;0.70;;;15.30;28.20;;;;;;5028492;28;46252;-80
2023/03/14 11:22:11;;;;;;;1.53;0.60;;;15.00;26.70;;;;;;5026355;28;46482;-81
2023/03/14 11:25:01;;;;;;;2.23;0.70;;;15.20;27.00;;;;;;5019889;28;46581;-82
2023/03/14 11:27:36;;;;;;;1.90;0.80;;;15.40;27.00;;;;;;5024979;28;47572;-78
2023/03/14 11:30:06;;;;;;;1.60;0.70;;;15.50;27.00;;;;;;5021393;28;46273;-80
2023/03/14 11:32:45;;;;;;;3.60;1.07;;;15.50;27.10;;;;;;5024381;28;46404;-81
2023/03/14 11:35:36;;;;;;;3.67;0.70;;;15.30;26.90;;;;;;5026471;28;46595;-81
2023/03/14 11:38:11;;;;;;;1.80;0.60;;;15.10;26.50;;;;;;5021993;28;47126;-80
2023/03/14 11:40:38;;;;;;;2.63;0.90;;;14.90;26.90;;;;;;5022950;28;46503;-80
2023/03/14 11:43:26;;;;;;;1.67;0.70;;;15.00;27.20;;;;;;5023541;28;46473;-79
2023/03/14 11:45:57;;;;;;;2.07;0.73;;;15.20;26.80;;;;;;5016391;28;46384;-81
2023/03/14 11:48:40;;;;;;;2.67;0.70;;;15.20;27.00;;;;;;5025794;28;46464;-81
2023/03/14 11:51:14;;;;;;;1.60;0.70;;;14.90;27.10;;;;;;5019958;28;46280;-80
2023/03/14 11:53:39;;;;;;;3.50;0.80;;;14.80;27.80;;;;;;5026428;28;45881;-79
2023/03/14 11:56:15;;;;;;;1.70;0.80;;;14.60;27.70;;;;;;5023869;28;46266;-81
2023/03/14 11:58:51;;;;;;;2.03;0.80;;;14.70;27.70;;;;;;5021654;28;48493;-80
2023/03/14 12:01:21;;;;;;;1.80;0.60;;;14.90;27.70;;;;;;5004744;28;46427;-81
2023/03/14 12:04:07;;;;;;;1.60;0.60;;;15.20;27.80;;;;;;5017445;28;46313;-81
2023/03/14 12:06:42;;;;;;;1.50;0.60;;;15.20;27.30;;;;;;5027951;28;46224;-81
2023/03/14 12:09:09;;;;;;;2.93;0.80;;;15.00;26.80;;;;;;5018693;28;47500;-80
2023/03/14 12:11:56;;;;;;;3.97;0.80;;;15.10;27.50;;;;;;5025091;28;46714;-82
2023/03/14 12:14:26;;;;;;;1.73;0.70;;;15.10;27.10;;;;;;5024953;28;45885;-82
2023/03/14 12:16:58;;;;;;;1.70;0.70;;;14.80;27.50;;;;;;5027871;28;46184;-82
2023/03/14 12:19:24;;;;;;;1.87;0.73;;;14.70;27.20;;;;;;5018052;28;46352;-82
2023/03/14 12:21:54;;;;;;;2.43;0.73;;;14.80;27.40;;;;;;5024819;28;46411;-82
2023/03/14 12:24:25;;;;;;;1.80;0.80;;;14.70;27.40;;;;;;5026899;28;46260;-81
2023/03/14 12:26:56;;;;;;;3.37;0.73;;;14.90;27.50;;;;;;5059462;28;46384;-81
2023/03/14 12:29:22;;;;;;;3.70;0.70;;;14.90;27.40;;;;;;5025085;28;47681;-82
2023/03/14 12:32:00;;;;;;;1.70;0.80;;;14.90;27.30;;;;;;5022164;28;46310;-82
2023/03/14 12:34:27;;;;;;;3.73;0.90;;;14.80;27.40;;;;;;5022845;28;46451;-84
2023/03/14 12:37:06;;;;;;;1.70;0.70;;;14.70;27.80;;;;;;5024284;28;45906;-81
2023/03/14 12:39:39;;;;;;;1.90;0.70;;;14.60;27.70;;;;;;5025757;28;47771;-79
2023/03/14 12:42:44;;;;;;;2.50;0.77;;;14.50;27.90;;;;;;5028941;28;47238;-81
2023/03/14 12:45:29;;;;;;;2.90;0.63;;;14.20;28.20;;;;;;5024175;28;46345;-81
2023/03/14 12:48:22;;;;;;;3.50;0.70;;;13.70;28.70;;;;;;5021585;28;46215;-81
2023/03/14 12:51:01;;;;;;;6.30;0.73;;;13.40;29.10;;;;;;5045416;28;48528;-80
2023/03/14 12:54:00;;;;;;;1.50;0.70;;;13.30;29.60;;;;;;5018241;28;46734;-80
2023/03/14 12:56:53;;;;;;;1.53;0.70;;;13.10;30.80;;;;;;5019161;28;46446;-79
2023/03/14 12:59:35;;;;;;;6.10;0.87;;;13.00;31.20;;;;;;5013731;28;46319;-81